Malcolm Mc Kinnon Airport Brunswick US
ICAO: KSSI
IATA: SSI
Category: Medium
Scheduled Services: No

Elevation: 19 ft
TransAlt. 18000 ft.

Airport Communications:
ASOS:118.525
JACKSONVILLE CNTR:126.75
CTAF/UNICOM:123.05

KSSI Zoom In..

If you have problems with the map follow the link
https://www.worldairports.se/pages/airport.php?
ICAO=KSSI

Runways:

(A) RW 04 length 5584 ft width 100 ft
---- / hdg 41

(B) RW 16 length 3313 ft width 75 ft
---- / hdg 159

(C) RW 22 length 5584 ft width 100 ft
---- / hdg 221

(D) RW 34 length 3313 ft width 75 ft
---- / hdg 339

Location; KSSI
Day. 18 / Time. 20.53 Zulu
* Altimeter: 30.08
* Temperature: 17° c. 62.6°f.
* Wind from: 120° Speed 08 kn.
Dewpoint: 12° c.
Visibility: 10 Statute Miles.
Clouds: Clear (automated report).

KSSI 182053Z AUTO 12008KT 10SM CLR 17/12 A3008 RMK AO2 SLP188 T01670117 55013


Wind From 120°
Speed 08 kn.

 
 
jpsmedia.com for Web Design worldairports.se 2019   terms of use